createdAt,value
2022-12-05T00:02:53.477Z,100.00
2022-12-05T00:07:56.240Z,100.00
2022-12-05T00:12:59.048Z,100.00
2022-12-05T00:18:03.176Z,100.00
2022-12-05T00:23:07.376Z,100.00
2022-12-05T00:28:10.094Z,100.00
2022-12-05T00:33:14.199Z,100.00
2022-12-05T00:38:16.929Z,100.00
2022-12-05T00:43:19.700Z,100.00
2022-12-05T00:48:23.793Z,100.00
2022-12-05T00:53:26.511Z,100.00
2022-12-05T00:58:29.260Z,100.00
2022-12-05T01:03:33.459Z,100.00
2022-12-05T01:08:37.047Z,100.00
2022-12-05T01:13:39.801Z,100.00
2022-12-05T01:18:44.108Z,100.00
2022-12-05T01:23:46.995Z,100.00
2022-12-05T01:28:50.967Z,100.00
2022-12-05T01:33:57.605Z,100.00
2022-12-05T01:39:01.083Z,100.00
2022-12-05T01:44:06.007Z,100.00
2022-12-05T01:49:14.355Z,100.00
2022-12-05T01:54:19.372Z,100.00
2022-12-05T01:59:23.507Z,100.00
2022-12-05T02:04:28.403Z,100.00
2022-12-05T02:09:31.217Z,100.00
2022-12-05T02:14:44.647Z,100.00
2022-12-05T02:20:04.105Z,100.00
2022-12-05T02:25:27.268Z,100.00
2022-12-05T02:37:00.830Z,100.00
2022-12-05T02:42:09.992Z,100.00
2022-12-05T02:47:14.803Z,100.00
2022-12-05T02:52:19.928Z,100.00
2022-12-05T02:57:24.630Z,100.00
2022-12-05T03:02:31.865Z,100.00
2022-12-05T03:07:37.570Z,100.00
2022-12-05T03:12:45.840Z,100.00
2022-12-05T03:17:53.888Z,100.00
2022-12-05T03:23:01.992Z,100.00
2022-12-05T03:28:11.245Z,100.00
2022-12-05T03:33:18.896Z,100.00
2022-12-05T03:38:29.255Z,100.00
2022-12-05T03:43:39.223Z,100.00
2022-12-05T03:48:49.335Z,100.00
2022-12-05T03:53:58.977Z,100.00
2022-12-05T03:59:08.401Z,100.00
2022-12-05T04:04:15.616Z,100.00
2022-12-05T04:09:25.514Z,100.00
2022-12-05T04:14:34.929Z,100.00
2022-12-05T04:20:00.411Z,100.00
2022-12-05T04:25:25.716Z,100.00
2022-12-05T04:30:34.301Z,100.00
2022-12-05T04:35:41.662Z,100.00
2022-12-05T04:40:51.678Z,100.00
2022-12-05T04:45:56.795Z,100.00
2022-12-05T04:51:00.305Z,100.00
2022-12-05T04:56:06.038Z,100.00
2022-12-05T05:01:15.381Z,100.00
2022-12-05T05:06:18.639Z,100.00
2022-12-05T05:11:25.074Z,100.00
2022-12-05T05:16:30.071Z,100.00
2022-12-05T05:21:34.675Z,100.00
2022-12-05T05:26:41.026Z,100.00
2022-12-05T05:31:44.064Z,100.00
2022-12-05T05:36:46.813Z,100.00
2022-12-05T05:41:50.906Z,100.00
2022-12-05T05:46:54.574Z,100.00
2022-12-05T05:51:57.413Z,100.00
2022-12-05T05:57:01.752Z,100.00
2022-12-05T06:02:04.534Z,100.00
2022-12-05T06:07:07.277Z,100.00
2022-12-05T06:12:11.436Z,100.00
2022-12-05T06:17:14.193Z,100.00
2022-12-05T06:22:17.048Z,100.00
2022-12-05T06:27:21.148Z,100.00
2022-12-05T06:32:24.112Z,100.00
2022-12-05T06:37:26.882Z,100.00
2022-12-05T06:42:32.373Z,100.00
2022-12-05T06:47:35.110Z,100.00
2022-12-05T06:52:37.969Z,100.00
2022-12-05T06:57:42.114Z,100.00
2022-12-05T07:02:45.144Z,100.00
2022-12-05T07:07:48.452Z,100.00
2022-12-05T07:12:52.592Z,100.00
2022-12-05T07:17:55.339Z,100.00
2022-12-05T07:22:58.096Z,100.00
2022-12-05T07:28:02.225Z,100.00
2022-12-05T07:33:05.212Z,100.00
2022-12-05T07:38:07.989Z,100.00
2022-12-05T07:43:12.077Z,100.00
2022-12-05T07:48:18.557Z,100.00
2022-12-05T07:53:21.908Z,100.00
2022-12-05T07:58:26.035Z,100.00
2022-12-05T08:03:28.753Z,100.00
2022-12-05T08:08:31.573Z,100.00
2022-12-05T08:13:35.930Z,100.00
2022-12-05T08:18:38.902Z,100.00
2022-12-05T08:23:41.937Z,100.00
2022-12-05T08:28:46.395Z,100.00
2022-12-05T08:33:50.406Z,100.00
2022-12-05T08:38:58.011Z,100.00
2022-12-05T08:44:05.472Z,100.00
2022-12-05T08:49:08.246Z,100.00
2022-12-05T08:54:11.685Z,100.00
2022-12-05T08:59:15.779Z,100.00
2022-12-05T09:04:18.533Z,100.00
2022-12-05T09:09:21.305Z,100.00
2022-12-05T09:14:25.953Z,100.00
2022-12-05T09:19:30.657Z,100.00
2022-12-05T09:24:33.597Z,100.00
2022-12-05T09:29:37.887Z,100.00
2022-12-05T09:34:40.755Z,100.00
2022-12-05T09:39:44.981Z,100.00
2022-12-05T09:45:03.624Z,100.00
2022-12-05T09:50:15.457Z,100.00
2022-12-05T09:55:21.054Z,100.00
2022-12-05T10:00:27.511Z,100.00
2022-12-05T10:05:41.640Z,100.00
2022-12-05T10:10:56.350Z,100.00
2022-12-05T10:16:04.257Z,100.00
2022-12-05T10:21:15.957Z,100.00
2022-12-05T10:26:19.416Z,100.00
2022-12-05T10:31:30.598Z,100.00
2022-12-05T10:36:33.766Z,100.00
2022-12-05T10:41:36.535Z,100.00
2022-12-05T10:46:40.763Z,100.00
2022-12-05T10:51:43.700Z,100.00
2022-12-05T10:56:48.712Z,100.00
2022-12-05T11:01:55.668Z,100.00
2022-12-05T11:07:02.364Z,100.00
2022-12-05T11:12:15.867Z,100.00
2022-12-05T11:17:27.029Z,100.00
2022-12-05T11:22:35.135Z,100.00
2022-12-05T11:27:37.858Z,100.00
2022-12-05T11:32:41.981Z,100.00
2022-12-05T11:37:48.962Z,100.00
2022-12-05T11:43:11.354Z,100.00
2022-12-05T11:48:31.116Z,100.00
2022-12-05T11:54:01.715Z,100.00
2022-12-05T11:59:37.970Z,100.00
2022-12-05T12:04:51.674Z,100.00
2022-12-05T12:10:09.933Z,100.00
2022-12-05T12:15:31.791Z,100.00
2022-12-05T12:20:45.631Z,100.00
2022-12-05T12:25:59.349Z,100.00
2022-12-05T12:31:16.364Z,100.00
2022-12-05T12:36:27.322Z,100.00
2022-12-05T12:41:52.991Z,100.00
2022-12-05T12:47:00.612Z,100.00
2022-12-05T12:52:10.842Z,100.00
2022-12-05T12:57:24.045Z,100.00
2022-12-05T13:02:32.997Z,100.00
2022-12-05T13:07:42.387Z,100.00
2022-12-05T13:12:46.028Z,100.00
2022-12-05T13:17:50.245Z,100.00
2022-12-05T13:22:55.732Z,100.00
2022-12-05T13:28:01.969Z,100.00
2022-12-05T13:33:09.782Z,100.00
2022-12-05T13:38:40.350Z,100.00
2022-12-05T13:43:54.011Z,100.00
2022-12-05T13:49:17.352Z,100.00
2022-12-05T13:54:25.479Z,100.00
2022-12-05T14:00:04.980Z,100.00
2022-12-05T14:05:44.070Z,100.00
2022-12-05T14:11:12.897Z,100.00
2022-12-05T14:16:45.099Z,100.00
2022-12-05T14:22:01.576Z,100.00
2022-12-05T14:27:13.848Z,100.00
2022-12-05T14:32:25.444Z,100.00
2022-12-05T14:37:32.194Z,100.00
2022-12-05T14:42:41.976Z,100.00
2022-12-05T14:47:52.242Z,100.00
2022-12-05T14:53:20.453Z,100.00
2022-12-05T14:58:33.357Z,100.00
2022-12-05T15:03:41.368Z,100.00
2022-12-05T15:08:48.757Z,100.00
2022-12-05T15:13:54.024Z,100.00
2022-12-05T15:19:01.170Z,100.00
2022-12-05T15:24:05.888Z,100.00
2022-12-05T15:29:13.139Z,100.00
2022-12-05T15:34:22.312Z,100.00
2022-12-05T15:39:28.500Z,100.00
2022-12-05T15:44:37.632Z,100.00
2022-12-05T15:49:41.004Z,100.00
2022-12-05T15:54:44.798Z,100.00
2022-12-05T15:59:53.572Z,100.00
2022-12-05T16:04:59.538Z,100.00
2022-12-05T16:10:03.163Z,100.00
2022-12-05T16:15:15.790Z,100.00
2022-12-05T16:20:26.171Z,100.00
2022-12-05T16:25:30.819Z,100.00
2022-12-05T16:30:36.109Z,100.00
2022-12-05T16:35:40.864Z,100.00
2022-12-05T16:40:55.823Z,100.00
2022-12-05T16:46:20.625Z,100.00
2022-12-05T16:51:25.910Z,100.00
2022-12-05T16:56:31.690Z,100.00
2022-12-05T17:01:39.230Z,100.00
2022-12-05T17:06:42.202Z,100.00
2022-12-05T17:11:47.014Z,100.00
2022-12-05T17:16:51.239Z,100.00
2022-12-05T17:21:54.029Z,100.00
2022-12-05T17:26:56.880Z,100.00
2022-12-05T17:32:01.700Z,100.00
2022-12-05T17:37:04.509Z,100.00
2022-12-05T17:42:07.334Z,100.00
2022-12-05T17:47:11.701Z,100.00
2022-12-05T17:52:22.788Z,100.00
2022-12-05T17:57:25.668Z,100.00
2022-12-05T18:02:29.735Z,100.00
2022-12-05T18:07:32.600Z,100.00
2022-12-05T18:12:35.375Z,100.00
2022-12-05T18:17:39.959Z,100.00
2022-12-05T18:22:43.485Z,100.00
2022-12-05T18:27:46.225Z,100.00
2022-12-05T18:32:50.731Z,100.00
2022-12-05T18:37:53.490Z,100.00
2022-12-05T18:42:56.243Z,100.00
2022-12-05T18:48:16.284Z,100.00
2022-12-05T18:53:23.235Z,100.00
2022-12-05T18:58:25.984Z,100.00
2022-12-05T19:03:30.128Z,99.54
2022-12-05T19:08:32.856Z,99.65
2022-12-05T19:13:36.424Z,100.00
2022-12-05T19:18:41.018Z,99.45
2022-12-05T19:23:43.754Z,99.66
2022-12-05T19:28:46.525Z,99.31
2022-12-05T19:33:52.804Z,99.84
2022-12-05T19:38:56.515Z,99.59
2022-12-05T19:44:01.588Z,99.78
2022-12-05T19:49:07.560Z,99.69
2022-12-05T19:54:13.180Z,100.00
2022-12-05T19:59:16.885Z,99.74
2022-12-05T20:04:21.039Z,99.42
2022-12-05T20:09:24.007Z,99.51
2022-12-05T20:14:27.095Z,99.63
2022-12-05T20:19:31.203Z,99.80
2022-12-05T20:24:34.187Z,99.49
2022-12-05T20:29:38.959Z,99.51
2022-12-05T20:34:43.094Z,99.30
2022-12-05T20:39:45.829Z,99.07
2022-12-05T20:44:48.653Z,99.57
2022-12-05T20:49:54.004Z,99.17
2022-12-05T20:54:57.049Z,99.41
2022-12-05T21:00:00.358Z,99.50
2022-12-05T21:05:04.921Z,99.96
2022-12-05T21:10:09.085Z,99.22
2022-12-05T21:15:12.439Z,99.39
2022-12-05T21:20:16.774Z,99.29
2022-12-05T21:25:19.533Z,99.65
2022-12-05T21:30:22.427Z,99.83
2022-12-05T21:35:26.523Z,99.39
2022-12-05T21:40:29.783Z,99.58
2022-12-05T21:45:32.488Z,99.35
2022-12-05T21:50:38.657Z,99.77
2022-12-05T21:55:41.675Z,99.89
2022-12-05T22:00:44.486Z,100.00
2022-12-05T22:05:49.436Z,99.60
2022-12-05T22:10:52.183Z,99.64
2022-12-05T22:15:58.923Z,99.45
2022-12-05T22:21:04.277Z,99.83
2022-12-05T22:26:09.430Z,100.00
2022-12-05T22:31:15.783Z,100.00
2022-12-05T22:36:20.857Z,100.00
2022-12-05T22:41:25.473Z,100.00
2022-12-05T22:46:29.442Z,100.00
2022-12-05T22:51:33.755Z,99.92
2022-12-05T22:56:36.514Z,100.00
2022-12-05T23:01:39.343Z,100.00
2022-12-05T23:06:43.458Z,100.00
2022-12-05T23:11:46.232Z,99.97
2022-12-05T23:16:48.981Z,99.84
2022-12-05T23:21:53.081Z,100.00
2022-12-05T23:26:55.874Z,99.70
2022-12-05T23:31:58.833Z,99.91
2022-12-05T23:37:02.973Z,100.00
2022-12-05T23:42:07.716Z,99.97
2022-12-05T23:47:13.677Z,99.45
2022-12-05T23:52:17.883Z,99.92
2022-12-05T23:57:20.649Z,99.60
